This is the latest recevied weather packets stored in our database for station/object SHLBYV-WX. If no packets are shown the sender has not sent any weather packets the latest 1 day(s).
| Time | Temp. | Humidity | Pressure | Rain* | Wind** | Luminosity | Snow |
|---|---|---|---|---|---|---|---|
| 1778028349 | 8.89° C | 37% | 980.3 hPa | 0 mm | 1.79 m/s, 299° | - | - |
| 1778027464 | 9.44° C | 37% | 980.6 hPa | 0 mm | 1.79 m/s, 293° | - | - |
| 1778026550 | 9.44° C | 37% | 980.6 hPa | 0 mm | 2.68 m/s, 298° | - | - |
| 1778025686 | 10° C | 37% | 980.6 hPa | 0 mm | 3.13 m/s, 300° | - | - |
| 1778024750 | 10° C | 36% | 980.5 hPa | 0 mm | 3.58 m/s, 301° | - | - |
| 1778023867 | 10.56° C | 35% | 980.4 hPa | 0 mm | 3.58 m/s, 300° | - | - |
| 1778022951 | 10.56° C | 35% | 980.4 hPa | 0 mm | 4.02 m/s, 300° | - | - |
| 1778022078 | 10.56° C | 35% | 980.4 hPa | 0 mm | 4.02 m/s, 297° | - | - |
| 1778021152 | 11.11° C | 36% | 980.3 hPa | 0 mm | 4.47 m/s, 297° | - | - |
| 1778020270 | 11.11° C | 38% | 980.6 hPa | 0 mm | 4.92 m/s, 295° | - | - |
| 1778019350 | 11.67° C | 38% | 980.6 hPa | 0 mm | 4.92 m/s, 293° | - | - |
| 1778018481 | 11.67° C | 38% | 980.6 hPa | 0 mm | 5.36 m/s, 289° | - | - |
| 1778017550 | 11.67° C | 39% | 980.4 hPa | 0 mm | 5.36 m/s, 288° | - | - |
| 1778016670 | 11.67° C | 40% | 980.2 hPa | 0 mm | 5.81 m/s, 286° | - | - |
| 1778015750 | 11.67° C | 40% | 980.2 hPa | 0 mm | 6.26 m/s, 284° | - | - |
| 1778014884 | 11.67° C | 40% | 980.2 hPa | 0 mm | 5.81 m/s, 283° | - | - |
| 1778013950 | 11.67° C | 41% | 980.6 hPa | 0 mm | 5.81 m/s, 281° | - | - |
| 1778013071 | 11.67° C | 41% | 980 hPa | 0 mm | 5.81 m/s, 279° | - | - |
| 1778012150 | 11.67° C | 36% | 979.6 hPa | 0 mm | 6.26 m/s, 279° | - | - |
| 1778011280 | 11.67° C | 36% | 979.6 hPa | 0 mm | 6.26 m/s, 280° | - | - |
| 1778010349 | 11.67° C | 34% | 979.5 hPa | 0 mm | 6.26 m/s, 276° | - | - |
| 1778009467 | 12.22° C | 34% | 979.5 hPa | 0 mm | 5.81 m/s, 277° | - | - |
| 1778008552 | 12.22° C | 34% | 979.5 hPa | 0 mm | 5.81 m/s, 275° | - | - |
| 1778007680 | 12.22° C | 34% | 979.5 hPa | 0 mm | 5.81 m/s, 271° | - | - |
| 1778006752 | 12.22° C | 36% | 980.3 hPa | 0 mm | 5.81 m/s, 268° | - | - |
* Rain latest hour (hover to see other rain measurements)
** Current wind speed in m/s (hover to see current wind gust speed)